CheckWX is a tool to help pilots better visualize weather data.  It is not intended as a substitute for an official pre-flight weather briefing.

09:58:47 UTC

KEAT METAR
Pangborn Memorial Airport
Wenatchee, Washington, USA
Current

1 hour ago

KEAT 250855Z AUTO 33005KT 10SM CLR 01/M06 A3057 RMK AO2 SLP360 T00111061 51009
Observed
Feb-25 @ 08:55 UTC
Wind
  • 330° at 5 KTS
Visibility
10 SM
Flight Rules
VFR
Cloud Levels
  • Clear skies
Temperature
C / 34°F
Dewpoint
-6°C / 21°F
Humidity
60%
Altimeter
30.57" Hg
Pressure
1035.22 hPa
Previous

2 hours ago

KEAT 250755Z AUTO 30006KT 10SM CLR 01/M06 A3056 RMK AO2 SLP359 T00061061 400940000
Observed
Feb-25 @ 07:55 UTC
Wind
  • 300° at 6 KTS
Visibility
10 SM
Flight Rules
VFR
Cloud Levels
  • Clear skies
Temperature
C / 34°F
Dewpoint
-6°C / 21°F
Humidity
60%
Altimeter
30.56" Hg
Pressure
1034.92 hPa
Previous

3 hours ago

KEAT 250655Z AUTO 33004KT 10SM CLR 02/M07 A3055 RMK AO2 SLP353 T00171067
Observed
Feb-25 @ 06:55 UTC
Wind
  • 330° at 4 KTS
Visibility
10 SM
Flight Rules
VFR
Cloud Levels
  • Clear skies
Temperature
C / 36°F
Dewpoint
-7°C / 19°F
Humidity
52%
Altimeter
30.55" Hg
Pressure
1034.52 hPa